createdAt,value
2022-10-18T00:00:50.161Z,63.34
2022-10-18T00:03:17.001Z,63.54
2022-10-18T00:05:44.065Z,63.36
2022-10-18T00:08:11.091Z,63.75
2022-10-18T00:10:37.949Z,63.67
2022-10-18T00:13:04.845Z,63.37
2022-10-18T00:15:31.832Z,63.80
2022-10-18T00:17:58.651Z,63.68
2022-10-18T00:20:26.027Z,63.41
2022-10-18T00:22:52.889Z,63.57
2022-10-18T00:25:19.945Z,63.64
2022-10-18T00:27:46.905Z,63.44
2022-10-18T00:30:15.117Z,63.84
2022-10-18T00:32:42.784Z,63.84
2022-10-18T00:35:09.716Z,63.86
2022-10-18T00:37:36.547Z,63.66
2022-10-18T00:40:04.760Z,63.90
2022-10-18T00:42:34.043Z,63.67
2022-10-18T00:45:03.169Z,63.90
2022-10-18T00:47:31.896Z,63.71
2022-10-18T00:50:03.049Z,63.93
2022-10-18T00:52:33.816Z,63.95
2022-10-18T00:55:01.155Z,63.86
2022-10-18T00:57:28.422Z,63.96
2022-10-18T00:59:55.498Z,63.81
2022-10-18T01:02:22.978Z,63.83
2022-10-18T01:04:49.842Z,63.91
2022-10-18T01:07:42.039Z,64.02
2022-10-18T01:10:36.035Z,64.08
2022-10-18T01:13:02.822Z,63.71
2022-10-18T01:15:34.299Z,63.73
2022-10-18T01:18:19.348Z,63.83
2022-10-18T01:20:57.931Z,64.02
2022-10-18T01:23:55.022Z,63.86
2022-10-18T01:26:58.735Z,63.90
2022-10-18T01:30:10.604Z,64.21
2022-10-18T01:32:46.984Z,64.15
2022-10-18T01:35:22.905Z,64.04
2022-10-18T01:37:52.838Z,64.05
2022-10-18T01:40:22.543Z,64.06
2022-10-18T01:42:50.058Z,64.05
2022-10-18T01:45:19.256Z,63.97
2022-10-18T01:47:47.494Z,64.06
2022-10-18T01:50:14.543Z,63.96
2022-10-18T01:52:49.507Z,63.93
2022-10-18T01:55:16.404Z,64.13
2022-10-18T01:57:58.744Z,64.37
2022-10-18T02:00:38.092Z,64.42
2022-10-18T02:03:27.914Z,64.24
2022-10-18T02:06:13.974Z,63.93
2022-10-18T02:08:54.803Z,63.93
2022-10-18T02:11:22.015Z,64.09
2022-10-18T02:14:11.146Z,64.05
2022-10-18T02:16:43.471Z,63.99
2022-10-18T02:19:20.619Z,64.23
2022-10-18T02:21:48.701Z,64.14
2022-10-18T02:24:16.280Z,64.28
2022-10-18T02:26:43.201Z,64.23
2022-10-18T02:29:10.376Z,64.10
2022-10-18T02:31:44.575Z,64.33
2022-10-18T02:34:21.799Z,64.17
2022-10-18T02:36:54.269Z,64.36
2022-10-18T02:39:34.831Z,64.38
2022-10-18T02:42:06.970Z,64.39
2022-10-18T02:44:35.422Z,64.46
2022-10-18T02:47:02.524Z,64.25
2022-10-18T02:49:29.499Z,64.10
2022-10-18T02:51:56.310Z,64.40
2022-10-18T02:54:24.136Z,64.23
2022-10-18T02:56:51.404Z,64.37
2022-10-18T02:59:18.362Z,64.17
2022-10-18T03:01:45.239Z,64.10
2022-10-18T03:04:12.201Z,64.37
2022-10-18T03:06:39.064Z,64.36
2022-10-18T03:09:06.924Z,64.46
2022-10-18T03:11:33.836Z,64.36
2022-10-18T03:14:00.985Z,64.50
2022-10-18T03:16:27.901Z,64.59
2022-10-18T03:18:54.887Z,64.60
2022-10-18T03:21:23.094Z,64.48
2022-10-18T03:23:49.865Z,64.56
2022-10-18T03:26:16.734Z,64.43
2022-10-18T03:28:44.776Z,64.40
2022-10-18T03:31:11.585Z,64.45
2022-10-18T03:33:38.439Z,64.20
2022-10-18T03:36:05.515Z,64.44
2022-10-18T03:38:32.375Z,64.30
2022-10-18T03:40:59.129Z,64.33
2022-10-18T03:43:26.032Z,64.34
2022-10-18T03:45:53.114Z,64.35
2022-10-18T03:48:20.032Z,64.55
2022-10-18T03:50:47.106Z,64.34
2022-10-18T03:53:14.013Z,64.26
2022-10-18T03:55:40.925Z,64.13
2022-10-18T03:58:07.778Z,64.62
2022-10-18T04:00:35.061Z,64.37
2022-10-18T04:03:02.069Z,64.54
2022-10-18T04:05:31.069Z,64.71
2022-10-18T04:07:58.544Z,64.25
2022-10-18T04:10:26.047Z,64.65
2022-10-18T04:12:53.025Z,64.50
2022-10-18T04:15:20.135Z,64.53
2022-10-18T04:17:47.568Z,64.64
2022-10-18T04:20:14.452Z,64.56
2022-10-18T04:22:41.335Z,64.31
2022-10-18T04:25:08.661Z,64.39
2022-10-18T04:27:36.513Z,64.55
2022-10-18T04:30:04.389Z,64.47
2022-10-18T04:32:31.278Z,64.31
2022-10-18T04:34:58.241Z,64.64
2022-10-18T04:37:25.072Z,64.73
2022-10-18T04:39:53.647Z,64.53
2022-10-18T04:42:21.569Z,64.76
2022-10-18T04:44:48.534Z,64.71
2022-10-18T04:47:16.044Z,64.74
2022-10-18T04:49:43.007Z,64.92
2022-10-18T04:52:10.203Z,64.84
2022-10-18T04:54:37.347Z,64.72
2022-10-18T04:57:04.350Z,64.97
2022-10-18T04:59:31.233Z,65.32
2022-10-18T05:01:58.235Z,64.96
2022-10-18T05:04:26.041Z,65.06
2022-10-18T05:06:53.135Z,64.91
2022-10-18T05:09:22.501Z,64.99
2022-10-18T05:11:49.348Z,65.16
2022-10-18T05:14:16.366Z,65.13
2022-10-18T05:16:45.518Z,65.32
2022-10-18T05:19:12.475Z,65.39
2022-10-18T05:21:39.302Z,65.31
2022-10-18T05:24:06.460Z,65.25
2022-10-18T05:26:33.231Z,65.31
2022-10-18T05:29:00.094Z,65.49
2022-10-18T05:31:26.993Z,65.55
2022-10-18T05:33:53.803Z,65.54
2022-10-18T05:36:20.737Z,65.56
2022-10-18T05:38:48.569Z,65.14
2022-10-18T05:41:15.430Z,65.66
2022-10-18T05:43:42.447Z,65.37
2022-10-18T05:46:14.582Z,65.49
2022-10-18T05:48:43.490Z,65.51
2022-10-18T05:51:10.495Z,65.58
2022-10-18T05:53:38.221Z,65.71
2022-10-18T05:56:06.784Z,65.36
2022-10-18T05:58:34.496Z,65.27
2022-10-18T06:01:02.230Z,65.11
2022-10-18T06:03:31.018Z,65.48
2022-10-18T06:06:01.597Z,65.41
2022-10-18T06:08:28.560Z,65.20
2022-10-18T06:10:55.632Z,65.37
2022-10-18T06:13:22.721Z,65.13
2022-10-18T06:15:49.887Z,65.25
2022-10-18T06:18:16.921Z,65.06
2022-10-18T06:20:43.771Z,65.12
2022-10-18T06:23:10.655Z,64.96
2022-10-18T06:25:37.511Z,65.25
2022-10-18T06:28:07.965Z,65.22
2022-10-18T06:30:37.539Z,61.68
2022-10-18T06:33:04.549Z,61.46
2022-10-18T06:35:31.607Z,62.95
2022-10-18T06:37:58.410Z,64.07
2022-10-18T06:40:25.352Z,64.27
2022-10-18T06:43:00.335Z,64.28
2022-10-18T06:45:33.636Z,64.17
2022-10-18T06:48:00.468Z,64.50
2022-10-18T06:50:27.419Z,64.61
2022-10-18T06:52:54.418Z,64.66
2022-10-18T06:55:21.540Z,64.76
2022-10-18T06:57:48.405Z,64.60
2022-10-18T07:00:15.667Z,64.76
2022-10-18T07:02:42.748Z,64.58
2022-10-18T07:05:10.100Z,64.88
2022-10-18T07:07:37.281Z,64.79
2022-10-18T07:10:04.785Z,64.73
2022-10-18T07:12:32.455Z,64.63
2022-10-18T07:14:59.477Z,64.75
2022-10-18T07:17:27.484Z,65.06
2022-10-18T07:19:54.325Z,64.96
2022-10-18T07:22:21.215Z,64.75
2022-10-18T07:24:48.062Z,64.94
2022-10-18T07:27:15.059Z,65.06
2022-10-18T07:29:42.056Z,65.09
2022-10-18T07:32:08.941Z,65.14
2022-10-18T07:34:35.974Z,65.14
2022-10-18T07:37:03.105Z,65.17
2022-10-18T07:39:29.984Z,65.20
2022-10-18T07:41:56.896Z,65.46
2022-10-18T07:44:23.991Z,65.44
2022-10-18T07:46:51.112Z,65.74
2022-10-18T07:49:18.383Z,65.49
2022-10-18T07:51:45.365Z,65.36
2022-10-18T07:54:12.856Z,65.30
2022-10-18T07:56:39.995Z,65.15
2022-10-18T07:59:07.353Z,65.35
2022-10-18T08:01:34.824Z,65.32
2022-10-18T08:04:06.303Z,65.49
2022-10-18T08:06:35.011Z,65.48
2022-10-18T08:09:02.377Z,65.78
2022-10-18T08:11:29.415Z,65.32
2022-10-18T08:13:56.491Z,65.51
2022-10-18T08:16:26.683Z,65.78
2022-10-18T08:18:54.642Z,65.54
2022-10-18T08:21:22.089Z,65.72
2022-10-18T08:23:49.801Z,65.22
2022-10-18T08:26:19.867Z,65.23
2022-10-18T08:28:53.948Z,65.45
2022-10-18T08:31:26.044Z,65.46
2022-10-18T08:33:55.683Z,65.10
2022-10-18T08:36:22.799Z,65.22
2022-10-18T08:38:49.848Z,65.45
2022-10-18T08:41:33.824Z,65.37
2022-10-18T08:44:24.373Z,65.34
2022-10-18T08:46:58.656Z,65.25
2022-10-18T08:49:36.942Z,65.32
2022-10-18T08:52:11.268Z,65.02
2022-10-18T08:54:42.280Z,65.09
2022-10-18T08:57:16.092Z,64.92
2022-10-18T08:59:44.399Z,65.15
2022-10-18T09:02:20.916Z,64.92
2022-10-18T09:05:28.481Z,64.77
2022-10-18T09:08:13.912Z,64.78
2022-10-18T09:13:41.039Z,64.86
2022-10-18T09:16:28.778Z,64.75
2022-10-18T09:19:14.705Z,64.86
2022-10-18T09:21:56.105Z,64.85
2022-10-18T09:24:34.978Z,65.00
2022-10-18T09:27:09.848Z,64.99
2022-10-18T09:29:38.327Z,65.08
2022-10-18T09:32:14.854Z,64.77
2022-10-18T09:34:54.055Z,64.68
2022-10-18T09:37:23.244Z,64.76
2022-10-18T09:39:52.237Z,64.94
2022-10-18T09:42:29.164Z,64.88
2022-10-18T09:45:01.477Z,64.59
2022-10-18T09:47:35.259Z,64.46
2022-10-18T09:50:25.926Z,64.59
2022-10-18T09:53:18.665Z,62.83
2022-10-18T09:55:57.714Z,63.51
2022-10-18T09:58:26.385Z,64.16
2022-10-18T10:00:54.039Z,64.96
2022-10-18T10:03:21.291Z,65.04
2022-10-18T10:06:04.025Z,65.17
2022-10-18T10:08:35.672Z,65.26
2022-10-18T10:11:02.974Z,63.33
2022-10-18T10:13:30.252Z,62.71
2022-10-18T10:16:01.643Z,61.33
2022-10-18T10:18:40.834Z,61.51
2022-10-18T10:21:14.854Z,61.07
2022-10-18T10:23:55.253Z,60.73
2022-10-18T10:26:30.464Z,60.76
2022-10-18T10:28:57.496Z,60.92
2022-10-18T10:31:29.873Z,62.32
2022-10-18T10:34:06.059Z,62.81
2022-10-18T10:36:34.522Z,63.36
2022-10-18T10:39:06.492Z,63.70
2022-10-18T10:41:34.187Z,64.08
2022-10-18T10:44:04.623Z,64.59
2022-10-18T10:46:37.985Z,64.76
2022-10-18T10:49:35.089Z,64.83
2022-10-18T10:52:08.594Z,65.20
2022-10-18T10:54:50.327Z,65.62
2022-10-18T10:57:25.257Z,65.79
2022-10-18T10:59:58.531Z,65.90
2022-10-18T11:02:34.381Z,66.02
2022-10-18T11:05:24.897Z,66.04
2022-10-18T11:07:57.081Z,66.38
2022-10-18T11:10:28.667Z,66.24
2022-10-18T11:13:05.685Z,66.35
2022-10-18T11:15:53.445Z,66.39
2022-10-18T11:18:30.531Z,66.51
2022-10-18T11:21:28.321Z,66.57
2022-10-18T11:23:55.588Z,66.83
2022-10-18T11:26:31.269Z,66.89
2022-10-18T11:29:09.624Z,66.96
2022-10-18T11:31:47.870Z,66.84
2022-10-18T11:34:33.566Z,66.67
2022-10-18T11:37:31.069Z,66.80
2022-10-18T11:40:09.658Z,66.64
2022-10-18T11:43:05.617Z,66.57
2022-10-18T11:46:11.988Z,66.50
2022-10-18T11:48:44.502Z,66.55
2022-10-18T11:51:56.043Z,66.54
2022-10-18T11:54:41.926Z,66.26
2022-10-18T11:57:34.246Z,66.28
2022-10-18T12:00:24.834Z,66.25
2022-10-18T12:03:02.658Z,66.33
2022-10-18T12:05:31.499Z,66.39
2022-10-18T12:08:30.828Z,66.34
2022-10-18T12:11:05.857Z,66.22
2022-10-18T12:13:59.774Z,66.17
2022-10-18T12:16:50.632Z,66.19
2022-10-18T12:19:27.227Z,64.85
2022-10-18T12:22:03.324Z,65.56
2022-10-18T12:24:32.745Z,65.81
2022-10-18T12:27:01.832Z,63.17
2022-10-18T12:29:50.223Z,62.25
2022-10-18T12:32:25.341Z,63.68
2022-10-18T12:34:58.325Z,64.52
2022-10-18T12:37:32.456Z,64.87
2022-10-18T12:40:15.709Z,65.07
2022-10-18T12:42:48.526Z,65.14
2022-10-18T12:45:28.566Z,65.33
2022-10-18T12:48:00.435Z,65.18
2022-10-18T12:50:35.399Z,65.31
2022-10-18T12:53:16.089Z,65.40
2022-10-18T12:55:45.988Z,65.21
2022-10-18T12:58:16.021Z,65.39
2022-10-18T13:00:42.891Z,65.34
2022-10-18T13:03:12.662Z,65.13
2022-10-18T13:05:52.855Z,65.08
2022-10-18T13:08:30.563Z,65.22
2022-10-18T13:11:12.602Z,64.94
2022-10-18T13:14:11.708Z,64.91
2022-10-18T13:16:58.708Z,64.99
2022-10-18T13:20:02.851Z,65.11
2022-10-18T13:22:49.161Z,65.00
2022-10-18T13:25:28.839Z,64.86
2022-10-18T13:28:04.712Z,64.81
2022-10-18T13:31:10.238Z,64.68
2022-10-18T13:33:42.072Z,64.69
2022-10-18T13:36:22.638Z,64.54
2022-10-18T13:38:57.978Z,64.60
2022-10-18T13:41:47.136Z,64.49
2022-10-18T13:44:32.130Z,64.50
2022-10-18T13:46:58.988Z,64.63
2022-10-18T13:49:44.222Z,64.40
2022-10-18T13:52:47.262Z,64.42
2022-10-18T13:55:26.360Z,64.71
2022-10-18T13:58:14.570Z,62.57
2022-10-18T14:01:15.025Z,60.12
2022-10-18T14:04:03.624Z,62.09
2022-10-18T14:06:44.594Z,62.90
2022-10-18T14:09:46.052Z,62.97
2022-10-18T14:12:23.604Z,63.32
2022-10-18T14:15:03.047Z,60.97
2022-10-18T14:17:46.949Z,59.18
2022-10-18T14:20:29.776Z,58.12
2022-10-18T14:23:15.712Z,57.74
2022-10-18T14:25:43.614Z,58.07
2022-10-18T14:28:31.442Z,60.60
2022-10-18T14:31:09.640Z,60.76
2022-10-18T14:33:45.539Z,61.14
2022-10-18T14:36:21.471Z,61.33
2022-10-18T14:38:53.465Z,61.67
2022-10-18T14:41:20.387Z,62.45
2022-10-18T14:43:48.713Z,62.56
2022-10-18T14:46:28.113Z,62.46
2022-10-18T14:49:04.635Z,62.62
2022-10-18T14:51:35.953Z,62.56
2022-10-18T14:54:03.446Z,62.32
2022-10-18T14:56:32.924Z,62.48
2022-10-18T14:59:05.659Z,62.95
2022-10-18T15:01:33.304Z,63.36
2022-10-18T15:04:05.862Z,63.27
2022-10-18T15:06:33.822Z,62.89
2022-10-18T15:09:04.733Z,62.77
2022-10-18T15:11:32.235Z,62.83
2022-10-18T15:14:07.081Z,62.69
2022-10-18T15:16:34.425Z,63.05
2022-10-18T15:19:05.942Z,62.93
2022-10-18T15:21:35.870Z,62.68
2022-10-18T15:24:30.437Z,62.94
2022-10-18T15:27:09.731Z,62.80
2022-10-18T15:29:38.081Z,62.78
2022-10-18T15:32:14.271Z,62.97
2022-10-18T15:34:41.334Z,62.57
2022-10-18T15:37:32.995Z,62.59
2022-10-18T15:40:21.735Z,62.65
2022-10-18T15:42:56.971Z,62.58
2022-10-18T15:45:23.906Z,62.83
2022-10-18T15:48:20.079Z,61.50
2022-10-18T15:50:50.172Z,61.92
2022-10-18T15:53:23.256Z,62.39
2022-10-18T15:56:06.986Z,62.35
2022-10-18T15:58:39.671Z,61.61
2022-10-18T16:01:15.063Z,60.36
2022-10-18T16:03:43.040Z,60.39
2022-10-18T16:06:13.433Z,61.22
2022-10-18T16:08:45.835Z,61.83
2022-10-18T16:11:22.147Z,62.25
2022-10-18T16:13:49.262Z,62.37
2022-10-18T16:16:22.347Z,62.41
2022-10-18T16:18:50.307Z,62.41
2022-10-18T16:21:20.978Z,62.47
2022-10-18T16:23:49.695Z,62.38
2022-10-18T16:26:17.898Z,62.47
2022-10-18T16:28:45.482Z,62.22
2022-10-18T16:31:17.818Z,62.48
2022-10-18T16:33:45.714Z,62.46
2022-10-18T16:36:15.656Z,62.19
2022-10-18T16:38:43.416Z,62.21
2022-10-18T16:41:10.836Z,62.44
2022-10-18T16:43:38.661Z,62.32
2022-10-18T16:46:07.317Z,62.08
2022-10-18T16:48:34.566Z,61.37
2022-10-18T16:51:02.402Z,61.04
2022-10-18T16:53:29.536Z,60.90
2022-10-18T16:55:59.267Z,60.52
2022-10-18T16:58:28.181Z,60.25
2022-10-18T17:00:55.771Z,60.79
2022-10-18T17:03:23.114Z,60.98
2022-10-18T17:05:50.501Z,61.06
2022-10-18T17:08:21.518Z,61.23
2022-10-18T17:10:50.573Z,61.02
2022-10-18T17:13:17.722Z,61.26
2022-10-18T17:15:45.200Z,61.17
2022-10-18T17:18:14.698Z,61.23
2022-10-18T17:20:42.826Z,61.23
2022-10-18T17:23:09.925Z,61.01
2022-10-18T17:25:46.321Z,60.81
2022-10-18T17:28:25.079Z,61.03
2022-10-18T17:30:52.599Z,60.86
2022-10-18T17:33:19.781Z,60.71
2022-10-18T17:35:48.847Z,60.59
2022-10-18T17:38:16.103Z,60.69
2022-10-18T17:40:44.150Z,60.46
2022-10-18T17:43:13.757Z,60.56
2022-10-18T17:45:54.243Z,60.15
2022-10-18T17:48:21.393Z,60.19
2022-10-18T17:50:48.846Z,59.93
2022-10-18T17:53:17.080Z,59.84
2022-10-18T17:55:44.274Z,59.77
2022-10-18T17:58:11.889Z,59.99
2022-10-18T18:00:40.079Z,59.77
2022-10-18T18:03:08.254Z,59.95
2022-10-18T18:05:35.290Z,60.01
2022-10-18T18:08:04.511Z,59.97
2022-10-18T18:10:36.010Z,60.17
2022-10-18T18:13:03.818Z,60.33
2022-10-18T18:15:31.611Z,60.68
2022-10-18T18:17:58.635Z,60.52
2022-10-18T18:20:27.062Z,60.26
2022-10-18T18:22:54.105Z,60.58
2022-10-18T18:25:21.219Z,60.48
2022-10-18T18:27:48.361Z,60.66
2022-10-18T18:30:18.250Z,60.45
2022-10-18T18:32:45.629Z,60.45
2022-10-18T18:35:13.053Z,60.42
2022-10-18T18:37:40.167Z,60.21
2022-10-18T18:40:07.858Z,59.98
2022-10-18T18:42:35.593Z,59.69
2022-10-18T18:45:03.043Z,59.85
2022-10-18T18:47:30.331Z,59.59
2022-10-18T18:49:57.563Z,59.46
2022-10-18T18:52:24.661Z,58.95
2022-10-18T18:54:51.983Z,59.24
2022-10-18T18:57:20.231Z,58.86
2022-10-18T18:59:47.470Z,58.88
2022-10-18T19:02:14.526Z,58.87
2022-10-18T19:04:41.885Z,58.38
2022-10-18T19:07:08.995Z,58.41
2022-10-18T19:09:38.621Z,58.53
2022-10-18T19:12:06.329Z,58.32
2022-10-18T19:14:33.539Z,58.24
2022-10-18T19:17:01.992Z,58.08
2022-10-18T19:19:31.503Z,58.11
2022-10-18T19:22:01.307Z,58.17
2022-10-18T19:24:50.323Z,58.11
2022-10-18T19:27:17.361Z,58.04
2022-10-18T19:29:46.429Z,58.06
2022-10-18T19:32:15.503Z,58.02
2022-10-18T19:34:46.839Z,57.79
2022-10-18T19:37:16.163Z,58.16
2022-10-18T19:39:43.873Z,57.95
2022-10-18T19:42:16.001Z,57.87
2022-10-18T19:44:46.267Z,57.81
2022-10-18T19:47:14.762Z,57.81
2022-10-18T19:49:46.102Z,57.82
2022-10-18T19:52:13.423Z,57.82
2022-10-18T19:54:44.337Z,57.56
2022-10-18T19:57:11.578Z,57.59
2022-10-18T20:02:26.441Z,57.43
2022-10-18T20:04:53.665Z,57.56
2022-10-18T20:07:21.047Z,57.72
2022-10-18T20:09:50.659Z,57.64
2022-10-18T20:12:17.774Z,57.57
2022-10-18T20:14:45.046Z,57.60
2022-10-18T20:17:13.357Z,57.63
2022-10-18T20:19:41.386Z,57.52
2022-10-18T20:22:08.620Z,57.60
2022-10-18T20:24:35.783Z,57.37
2022-10-18T20:27:02.974Z,57.58
2022-10-18T20:29:31.245Z,57.63
2022-10-18T20:31:59.114Z,57.71
2022-10-18T20:34:26.614Z,57.45
2022-10-18T20:36:56.850Z,57.45
2022-10-18T20:39:24.579Z,57.96
2022-10-18T20:41:51.763Z,57.95
2022-10-18T20:44:21.146Z,58.04
2022-10-18T20:46:48.258Z,58.25
2022-10-18T20:49:16.824Z,58.35
2022-10-18T20:51:43.933Z,58.47
2022-10-18T20:54:12.130Z,58.46
2022-10-18T20:56:39.969Z,58.78
2022-10-18T20:59:10.189Z,58.86
2022-10-18T21:01:39.026Z,58.73
2022-10-18T21:04:09.202Z,58.98
2022-10-18T21:06:40.693Z,58.96
2022-10-18T21:09:10.672Z,59.10
2022-10-18T21:11:41.094Z,59.30
2022-10-18T21:14:13.581Z,59.41
2022-10-18T21:16:41.649Z,59.31
2022-10-18T21:19:12.299Z,59.36
2022-10-18T21:21:43.051Z,59.55
2022-10-18T21:24:11.243Z,59.54
2022-10-18T21:26:38.206Z,59.58
2022-10-18T21:29:06.597Z,59.60
2022-10-18T21:31:36.578Z,59.77
2022-10-18T21:34:06.349Z,59.60
2022-10-18T21:36:36.630Z,59.84
2022-10-18T21:39:12.262Z,59.97
2022-10-18T21:41:39.238Z,60.01
2022-10-18T21:44:08.377Z,60.10
2022-10-18T21:46:39.730Z,60.02
2022-10-18T21:49:07.994Z,60.24
2022-10-18T21:51:35.853Z,60.24
2022-10-18T21:54:02.740Z,60.30
2022-10-18T21:56:32.913Z,60.38
2022-10-18T21:59:00.220Z,60.50
2022-10-18T22:01:33.377Z,60.39
2022-10-18T22:04:02.413Z,60.37
2022-10-18T22:06:32.652Z,60.46
2022-10-18T22:09:06.542Z,60.49
2022-10-18T22:11:37.011Z,60.58
2022-10-18T22:14:03.937Z,60.65
2022-10-18T22:16:30.823Z,60.75
2022-10-18T22:19:00.406Z,60.67
2022-10-18T22:21:28.187Z,60.76
2022-10-18T22:23:59.149Z,60.85
2022-10-18T22:26:32.559Z,60.79
2022-10-18T22:29:08.692Z,61.06
2022-10-18T22:31:38.995Z,60.97
2022-10-18T22:34:08.890Z,60.99
2022-10-18T22:36:36.002Z,61.01
2022-10-18T22:39:03.872Z,61.13
2022-10-18T22:41:30.805Z,61.06
2022-10-18T22:43:59.817Z,61.21
2022-10-18T22:46:29.927Z,61.26
2022-10-18T22:48:56.843Z,61.36
2022-10-18T22:51:24.155Z,61.17
2022-10-18T22:53:51.195Z,61.27
2022-10-18T22:56:20.563Z,61.38
2022-10-18T22:58:48.526Z,61.29
2022-10-18T23:01:20.784Z,61.41
2022-10-18T23:03:52.071Z,61.37
2022-10-18T23:06:26.569Z,61.47
2022-10-18T23:08:55.110Z,61.53
2022-10-18T23:11:22.378Z,61.41
2022-10-18T23:13:49.343Z,61.29
2022-10-18T23:16:17.412Z,61.33
2022-10-18T23:18:44.292Z,61.46
2022-10-18T23:21:13.728Z,61.38
2022-10-18T23:23:42.647Z,61.54
2022-10-18T23:26:18.381Z,61.48
2022-10-18T23:28:49.308Z,61.53
2022-10-18T23:31:28.849Z,61.71
2022-10-18T23:33:58.369Z,61.68
2022-10-18T23:36:26.405Z,61.41
2022-10-18T23:38:54.140Z,61.47
2022-10-18T23:41:21.285Z,61.35
2022-10-18T23:43:48.204Z,61.75
2022-10-18T23:46:17.114Z,61.74
2022-10-18T23:48:44.722Z,61.70
2022-10-18T23:51:12.003Z,61.95
2022-10-18T23:53:39.181Z,61.65
2022-10-18T23:56:09.178Z,61.87
2022-10-18T23:58:36.872Z,61.85
